createdAt,value
2022-08-12T00:00:08.553Z,15.90
2022-08-12T00:02:55.265Z,15.80
2022-08-12T00:06:01.782Z,15.80
2022-08-12T00:08:48.800Z,15.70
2022-08-12T00:11:34.302Z,15.70
2022-08-12T00:14:19.939Z,15.70
2022-08-12T00:17:06.701Z,15.70
2022-08-12T00:19:52.212Z,15.70
2022-08-12T00:22:38.436Z,15.60
2022-08-12T00:26:01.312Z,15.60
2022-08-12T00:28:30.678Z,15.50
2022-08-12T00:31:16.120Z,15.50
2022-08-12T00:34:01.584Z,15.30
2022-08-12T00:36:48.840Z,15.20
2022-08-12T00:39:36.389Z,15.20
2022-08-12T00:42:12.981Z,15.10
2022-08-12T00:44:44.582Z,15.10
2022-08-12T00:47:24.807Z,15.00
2022-08-12T00:49:54.537Z,15.00
2022-08-12T00:52:22.130Z,15.10
2022-08-12T00:54:57.512Z,15.10
2022-08-12T00:57:35.702Z,15.10
2022-08-12T01:00:06.185Z,15.10
2022-08-12T01:02:35.520Z,15.10
2022-08-12T01:05:27.396Z,15.00
2022-08-12T01:08:13.445Z,15.00
2022-08-12T01:11:00.895Z,15.00
2022-08-12T01:13:30.045Z,15.00
2022-08-12T01:16:02.039Z,15.00
2022-08-12T01:18:33.531Z,15.00
2022-08-12T01:21:09.471Z,15.00
2022-08-12T01:23:47.227Z,14.90
2022-08-12T01:26:19.280Z,14.90
2022-08-12T01:28:48.395Z,14.90
2022-08-12T01:31:19.494Z,14.80
2022-08-12T01:34:02.938Z,14.80
2022-08-12T01:36:36.481Z,14.80
2022-08-12T01:39:04.655Z,14.70
2022-08-12T01:41:35.131Z,14.70
2022-08-12T01:44:03.049Z,14.60
2022-08-12T01:46:56.938Z,14.60
2022-08-12T01:50:00.520Z,14.60
2022-08-12T01:52:41.457Z,14.70
2022-08-12T01:55:10.050Z,14.60
2022-08-12T01:57:59.236Z,14.70
2022-08-12T02:00:46.118Z,14.60
2022-08-12T02:03:58.265Z,14.60
2022-08-12T02:07:00.605Z,14.60
2022-08-12T02:10:50.380Z,14.60
2022-08-12T02:13:49.274Z,14.50
2022-08-12T02:16:50.994Z,14.50
2022-08-12T02:19:39.453Z,14.50
2022-08-12T02:22:28.205Z,14.50
2022-08-12T02:25:06.508Z,14.40
2022-08-12T02:27:42.343Z,14.30
2022-08-12T02:30:15.036Z,14.30
2022-08-12T02:32:45.371Z,14.30
2022-08-12T02:35:15.561Z,14.30
2022-08-12T02:37:43.878Z,14.30
2022-08-12T02:40:12.570Z,14.30
2022-08-12T02:42:56.596Z,14.30
2022-08-12T02:45:41.726Z,14.20
2022-08-12T02:48:10.537Z,14.20
2022-08-12T02:50:52.822Z,14.30
2022-08-12T02:53:20.590Z,14.20
2022-08-12T02:55:47.542Z,14.10
2022-08-12T02:58:15.364Z,14.10
2022-08-12T03:00:43.967Z,14.00
2022-08-12T03:03:13.430Z,14.00
2022-08-12T03:05:57.909Z,13.90
2022-08-12T03:08:32.445Z,13.90
2022-08-12T03:11:12.020Z,13.90
2022-08-12T03:13:45.954Z,13.90
2022-08-12T03:16:14.445Z,14.00
2022-08-12T03:18:45.690Z,13.90
2022-08-12T03:21:16.815Z,13.90
2022-08-12T03:23:45.808Z,13.90
2022-08-12T03:26:14.565Z,13.90
2022-08-12T03:28:51.788Z,13.90
2022-08-12T03:31:22.053Z,13.80
2022-08-12T03:34:02.166Z,13.80
2022-08-12T03:36:33.414Z,13.80
2022-08-12T03:39:15.862Z,13.70
2022-08-12T03:42:22.357Z,13.70
2022-08-12T03:45:29.570Z,13.70
2022-08-12T03:48:29.458Z,13.70
2022-08-12T03:51:16.564Z,13.70
2022-08-12T03:54:04.200Z,13.70
2022-08-12T03:56:51.899Z,13.70
2022-08-12T03:59:37.601Z,13.70
2022-08-12T04:02:04.970Z,13.70
2022-08-12T04:04:35.039Z,13.60
2022-08-12T04:07:07.789Z,13.60
2022-08-12T04:09:37.598Z,13.50
2022-08-12T04:12:23.424Z,13.50
2022-08-12T04:14:54.580Z,13.50
2022-08-12T04:17:21.964Z,13.50
2022-08-12T04:19:49.380Z,13.50
2022-08-12T04:22:16.789Z,13.40
2022-08-12T04:24:44.224Z,13.40
2022-08-12T04:27:17.228Z,13.40
2022-08-12T04:30:32.010Z,13.40
2022-08-12T04:32:32.732Z,13.40
2022-08-12T04:34:59.963Z,13.40
2022-08-12T04:37:27.544Z,13.40
2022-08-12T04:39:55.865Z,13.40
2022-08-12T04:42:23.760Z,13.40
2022-08-12T04:44:50.645Z,13.40
2022-08-12T04:47:18.011Z,13.40
2022-08-12T04:49:48.190Z,13.50
2022-08-12T04:52:15.510Z,13.50
2022-08-12T04:54:43.985Z,13.50
2022-08-12T04:57:10.964Z,13.50
2022-08-12T04:59:47.365Z,13.50
2022-08-12T05:02:21.212Z,13.50
2022-08-12T05:04:51.473Z,13.50
2022-08-12T05:07:18.691Z,13.60
2022-08-12T05:09:58.700Z,13.70
2022-08-12T05:12:34.315Z,13.80
2022-08-12T05:15:01.677Z,13.80
2022-08-12T05:17:28.660Z,13.90
2022-08-12T05:19:57.297Z,13.90
2022-08-12T05:22:26.092Z,14.00
2022-08-12T05:24:53.255Z,14.00
2022-08-12T05:27:22.755Z,14.00
2022-08-12T05:30:05.611Z,14.00
2022-08-12T05:32:37.101Z,14.10
2022-08-12T05:35:06.735Z,14.10
2022-08-12T05:37:35.142Z,14.10
2022-08-12T05:40:10.103Z,14.20
2022-08-12T05:42:38.052Z,14.30
2022-08-12T05:45:05.679Z,14.30
2022-08-12T05:47:44.876Z,14.40
2022-08-12T05:50:19.706Z,14.50
2022-08-12T05:52:48.102Z,14.60
2022-08-12T05:55:15.561Z,14.60
2022-08-12T05:57:48.324Z,14.70
2022-08-12T06:00:17.262Z,14.80
2022-08-12T06:02:46.399Z,14.80
2022-08-12T06:05:14.068Z,14.90
2022-08-12T06:08:01.616Z,15.00
2022-08-12T06:10:32.255Z,15.10
2022-08-12T06:13:05.240Z,15.20
2022-08-12T06:15:37.787Z,15.30
2022-08-12T06:18:13.964Z,15.40
2022-08-12T06:20:46.714Z,15.50
2022-08-12T06:23:15.458Z,15.60
2022-08-12T06:25:43.533Z,15.70
2022-08-12T06:28:21.069Z,15.80
2022-08-12T06:31:08.160Z,15.90
2022-08-12T06:33:54.932Z,16.00
2022-08-12T06:36:24.955Z,16.00
2022-08-12T06:38:57.767Z,16.20
2022-08-12T06:42:30.907Z,16.20
2022-08-12T06:44:30.716Z,16.40
2022-08-12T06:46:58.399Z,16.40
2022-08-12T06:49:25.529Z,16.50
2022-08-12T06:51:56.828Z,16.60
2022-08-12T06:54:31.967Z,16.70
2022-08-12T06:58:05.311Z,16.80
2022-08-12T06:59:50.897Z,16.90
2022-08-12T07:02:19.731Z,17.00
2022-08-12T07:04:47.505Z,17.10
2022-08-12T07:07:14.846Z,17.20
2022-08-12T07:10:06.033Z,17.30
2022-08-12T07:12:29.705Z,17.30
2022-08-12T07:15:01.511Z,17.40
2022-08-12T07:17:37.236Z,17.50
2022-08-12T07:20:29.470Z,17.50
2022-08-12T07:22:58.505Z,17.70
2022-08-12T07:25:31.044Z,17.70
2022-08-12T07:28:16.381Z,17.80
2022-08-12T07:30:46.830Z,17.80
2022-08-12T07:33:15.701Z,18.00
2022-08-12T07:35:47.669Z,18.10
2022-08-12T07:38:33.467Z,18.30
2022-08-12T07:41:06.051Z,18.50
2022-08-12T07:43:39.189Z,18.50
2022-08-12T07:46:08.247Z,18.70
2022-08-12T07:48:38.408Z,18.70
2022-08-12T07:51:05.878Z,18.80
2022-08-12T07:53:33.415Z,18.90
2022-08-12T07:56:16.091Z,19.00
2022-08-12T07:58:47.004Z,19.20
2022-08-12T08:01:21.326Z,19.40
2022-08-12T08:04:14.050Z,19.90
2022-08-12T08:06:44.763Z,20.70
2022-08-12T08:09:14.773Z,21.40
2022-08-12T08:12:00.151Z,22.00
2022-08-12T08:14:29.053Z,22.50
2022-08-12T08:16:57.789Z,22.80
2022-08-12T08:19:25.909Z,22.90
2022-08-12T08:21:58.663Z,23.10
2022-08-12T08:24:27.974Z,23.30
2022-08-12T08:26:58.407Z,23.50
2022-08-12T08:29:25.842Z,23.70
2022-08-12T08:32:00.913Z,23.60
2022-08-12T08:34:53.731Z,23.70
2022-08-12T08:37:17.236Z,23.90
2022-08-12T08:39:44.380Z,24.10
2022-08-12T08:42:30.005Z,24.20
2022-08-12T08:44:58.718Z,24.30
2022-08-12T08:47:26.080Z,24.40
2022-08-12T08:49:52.966Z,24.50
2022-08-12T08:52:39.684Z,24.60
2022-08-12T08:55:07.868Z,24.80
2022-08-12T08:57:43.179Z,25.00
2022-08-12T09:00:17.304Z,25.30
2022-08-12T09:02:49.121Z,25.60
2022-08-12T09:05:25.888Z,25.90
2022-08-12T09:08:14.327Z,25.90
2022-08-12T09:10:45.006Z,26.10
2022-08-12T09:14:12.061Z,26.20
2022-08-12T09:16:21.478Z,26.40
2022-08-12T09:18:52.377Z,26.60
2022-08-12T09:21:21.336Z,26.70
2022-08-12T09:26:46.374Z,26.80
2022-08-12T09:29:15.503Z,27.00
2022-08-12T09:32:03.316Z,27.00
2022-08-12T09:34:34.142Z,27.00
2022-08-12T09:37:19.312Z,27.10
2022-08-12T09:40:05.338Z,27.10
2022-08-12T09:46:06.670Z,27.10
2022-08-12T09:48:35.169Z,27.20
2022-08-12T09:51:04.400Z,27.30
2022-08-12T09:53:38.391Z,27.40
2022-08-12T09:56:59.171Z,27.30
2022-08-12T09:59:09.973Z,27.40
2022-08-12T10:02:43.342Z,27.40
2022-08-12T10:04:25.842Z,27.50
2022-08-12T10:06:53.898Z,27.60
2022-08-12T10:09:57.109Z,27.60
2022-08-12T10:12:31.476Z,27.70
2022-08-12T10:16:01.872Z,27.70
2022-08-12T10:18:06.895Z,27.70
2022-08-12T10:20:34.475Z,27.80
2022-08-12T10:23:01.623Z,27.80
2022-08-12T10:26:10.044Z,27.80
2022-08-12T10:29:01.916Z,27.80
2022-08-12T10:32:01.685Z,27.90
2022-08-12T10:34:25.921Z,28.10
2022-08-12T10:37:10.459Z,28.30
2022-08-12T10:40:06.905Z,28.30
2022-08-12T10:43:00.618Z,28.40
2022-08-12T10:45:30.433Z,28.30
2022-08-12T10:48:20.456Z,28.40
2022-08-12T10:50:56.710Z,28.40
2022-08-12T10:53:45.421Z,28.40
2022-08-12T10:56:15.416Z,28.50
2022-08-12T10:58:46.111Z,28.70
2022-08-12T11:01:50.531Z,28.80
2022-08-12T11:04:23.266Z,28.80
2022-08-12T11:07:03.197Z,28.90
2022-08-12T11:09:41.574Z,28.90
2022-08-12T11:12:56.674Z,29.10
2022-08-12T11:15:19.133Z,29.10
2022-08-12T11:17:54.335Z,29.20
2022-08-12T11:20:30.681Z,29.20
2022-08-12T11:23:24.638Z,29.30
2022-08-12T11:25:57.733Z,29.30
2022-08-12T11:28:33.794Z,29.30
2022-08-12T11:31:04.329Z,29.20
2022-08-12T11:34:04.453Z,29.20
2022-08-12T11:36:22.262Z,29.30
2022-08-12T11:38:50.905Z,29.30
2022-08-12T11:41:30.892Z,29.30
2022-08-12T11:44:35.464Z,29.40
2022-08-12T11:46:51.200Z,29.60
2022-08-12T11:49:31.081Z,29.70
2022-08-12T11:51:59.420Z,29.70
2022-08-12T11:54:26.390Z,29.60
2022-08-12T11:57:02.068Z,29.70
2022-08-12T12:02:20.613Z,29.60
2022-08-12T12:04:53.033Z,29.80
2022-08-12T12:07:34.050Z,29.80
2022-08-12T12:10:15.498Z,29.90
2022-08-12T12:12:50.113Z,30.00
2022-08-12T12:15:24.572Z,30.10
2022-08-12T12:17:55.805Z,30.10
2022-08-12T12:20:26.069Z,30.10
2022-08-12T12:22:54.668Z,30.20
2022-08-12T12:25:21.439Z,30.20
2022-08-12T12:28:08.295Z,30.10
2022-08-12T12:30:55.164Z,30.10
2022-08-12T12:33:22.287Z,29.90
2022-08-12T12:36:18.694Z,29.80
2022-08-12T12:38:35.996Z,29.80
2022-08-12T12:41:16.525Z,29.80
2022-08-12T12:43:47.585Z,29.90
2022-08-12T12:46:30.787Z,29.80
2022-08-12T12:48:57.495Z,29.80
2022-08-12T12:51:49.525Z,29.80
2022-08-12T12:54:11.460Z,29.80
2022-08-12T12:56:42.808Z,29.80
2022-08-12T12:59:54.394Z,29.80
2022-08-12T13:02:08.047Z,29.90
2022-08-12T13:04:37.215Z,29.90
2022-08-12T13:07:05.715Z,29.80
2022-08-12T13:09:36.504Z,29.80
2022-08-12T13:12:08.903Z,29.80
2022-08-12T13:14:39.655Z,29.90
2022-08-12T13:17:09.551Z,30.00
2022-08-12T13:19:44.531Z,30.10
2022-08-12T13:22:19.228Z,30.10
2022-08-12T13:24:55.535Z,30.10
2022-08-12T13:27:48.267Z,30.10
2022-08-12T13:30:25.978Z,30.20
2022-08-12T13:32:58.504Z,30.20
2022-08-12T13:36:06.156Z,30.20
2022-08-12T13:38:38.752Z,30.30
2022-08-12T13:41:11.229Z,30.50
2022-08-12T13:43:41.371Z,30.50
2022-08-12T13:46:12.204Z,30.40
2022-08-12T13:48:45.103Z,30.40
2022-08-12T13:51:13.812Z,30.20
2022-08-12T13:53:57.667Z,30.10
2022-08-12T13:56:33.479Z,29.90
2022-08-12T13:59:05.603Z,29.90
2022-08-12T14:01:35.646Z,29.90
2022-08-12T14:04:11.404Z,29.90
2022-08-12T14:06:39.577Z,29.90
2022-08-12T14:09:17.830Z,29.90
2022-08-12T14:11:51.181Z,29.80
2022-08-12T14:14:27.171Z,29.80
2022-08-12T14:16:53.898Z,29.80
2022-08-12T14:19:23.109Z,29.70
2022-08-12T14:21:59.091Z,29.70
2022-08-12T14:24:27.324Z,29.70
2022-08-12T14:26:58.869Z,29.70
2022-08-12T14:29:56.202Z,29.50
2022-08-12T14:32:17.598Z,29.40
2022-08-12T14:34:46.999Z,29.40
2022-08-12T14:37:54.948Z,29.50
2022-08-12T14:40:00.598Z,29.50
2022-08-12T14:42:28.406Z,29.50
2022-08-12T14:45:01.150Z,29.40
2022-08-12T14:47:35.613Z,29.50
2022-08-12T14:50:41.243Z,29.60
2022-08-12T14:58:28.611Z,29.50
2022-08-12T15:01:21.184Z,29.20
2022-08-12T15:03:53.882Z,29.00
2022-08-12T15:06:39.068Z,28.90
2022-08-12T15:09:13.717Z,28.80
2022-08-12T15:11:54.811Z,28.80
2022-08-12T15:14:22.272Z,28.60
2022-08-12T15:16:50.027Z,28.60
2022-08-12T15:20:11.885Z,28.50
2022-08-12T15:22:39.458Z,28.30
2022-08-12T15:24:51.043Z,28.10
2022-08-12T15:27:22.464Z,27.80
2022-08-12T15:30:04.995Z,27.60
2022-08-12T15:32:32.897Z,27.50
2022-08-12T15:35:00.650Z,27.30
2022-08-12T15:38:08.265Z,27.10
2022-08-12T15:40:15.374Z,27.00
2022-08-12T15:42:59.724Z,27.00
2022-08-12T15:45:32.242Z,27.00
2022-08-12T15:48:04.504Z,27.00
2022-08-12T15:50:45.620Z,26.80
2022-08-12T15:53:15.393Z,26.60
2022-08-12T15:55:46.208Z,26.40
2022-08-12T15:58:16.645Z,26.50
2022-08-12T16:00:43.955Z,26.30
2022-08-12T16:03:13.593Z,26.30
2022-08-12T16:06:17.020Z,26.30
2022-08-12T16:08:36.404Z,26.20
2022-08-12T16:11:07.226Z,26.10
2022-08-12T16:13:35.243Z,26.00
2022-08-12T16:16:23.100Z,25.90
2022-08-12T16:18:56.259Z,25.80
2022-08-12T16:21:50.239Z,25.60
2022-08-12T16:24:11.609Z,25.50
2022-08-12T16:26:40.523Z,25.30
2022-08-12T16:29:15.585Z,25.10
2022-08-12T16:31:44.280Z,24.90
2022-08-12T16:34:41.985Z,24.60
2022-08-12T16:37:13.135Z,24.30
2022-08-12T16:39:59.623Z,24.10
2022-08-12T16:42:27.805Z,23.80
2022-08-12T16:45:02.568Z,23.50
2022-08-12T16:47:43.937Z,23.40
2022-08-12T16:50:31.083Z,23.20
2022-08-12T16:52:59.717Z,23.10
2022-08-12T16:55:41.970Z,22.90
2022-08-12T16:58:25.589Z,22.80
2022-08-12T17:00:55.619Z,22.70
2022-08-12T17:03:28.790Z,22.60
2022-08-12T17:05:56.149Z,22.50
2022-08-12T17:08:29.001Z,22.30
2022-08-12T17:10:56.629Z,22.30
2022-08-12T17:13:26.065Z,22.20
2022-08-12T17:16:05.689Z,22.10
2022-08-12T17:18:43.113Z,22.00
2022-08-12T17:21:12.362Z,21.90
2022-08-12T17:23:48.679Z,21.80
2022-08-12T17:26:22.244Z,21.80
2022-08-12T17:28:52.422Z,21.70
2022-08-12T17:31:59.837Z,21.60
2022-08-12T17:34:28.173Z,21.60
2022-08-12T17:36:58.673Z,21.50
2022-08-12T17:40:06.332Z,21.40
2022-08-12T17:42:34.513Z,21.40
2022-08-12T17:45:18.245Z,21.30
2022-08-12T17:48:01.198Z,21.30
2022-08-12T17:50:38.779Z,21.20
2022-08-12T17:53:10.731Z,21.10
2022-08-12T17:55:47.894Z,21.00
2022-08-12T17:58:35.580Z,21.00
2022-08-12T18:01:06.096Z,20.90
2022-08-12T18:04:05.886Z,20.80
2022-08-12T18:06:28.327Z,20.90
2022-08-12T18:08:59.106Z,20.80
2022-08-12T18:12:05.746Z,20.70
2022-08-12T18:14:32.434Z,20.70
2022-08-12T18:17:01.618Z,20.60
2022-08-12T18:20:04.123Z,20.50
2022-08-12T18:22:22.290Z,20.50
2022-08-12T18:25:04.964Z,20.40
2022-08-12T18:27:46.682Z,20.40
2022-08-12T18:30:20.545Z,20.40
2022-08-12T18:33:03.645Z,20.40
2022-08-12T18:35:47.691Z,20.30
2022-08-12T18:38:22.060Z,20.30
2022-08-12T18:41:10.018Z,20.20
2022-08-12T18:43:59.488Z,20.20
2022-08-12T18:46:32.245Z,20.10
2022-08-12T18:49:18.240Z,20.10
2022-08-12T18:52:02.185Z,20.00
2022-08-12T18:54:53.405Z,20.00
2022-08-12T18:58:05.773Z,20.00
2022-08-12T19:00:18.790Z,20.00
2022-08-12T19:02:50.530Z,19.90
2022-08-12T19:05:20.272Z,19.90
2022-08-12T19:08:01.023Z,19.90
2022-08-12T19:10:31.278Z,19.90
2022-08-12T19:13:23.143Z,19.80
2022-08-12T19:15:53.234Z,19.80
2022-08-12T19:18:22.266Z,19.70
2022-08-12T19:20:50.707Z,19.70
2022-08-12T19:23:21.021Z,19.60
2022-08-12T19:26:00.156Z,19.60
2022-08-12T19:28:35.288Z,19.50
2022-08-12T19:31:56.661Z,19.50
2022-08-12T19:35:06.622Z,19.50
2022-08-12T19:37:26.788Z,19.40
2022-08-12T19:40:09.345Z,19.30
2022-08-12T19:42:53.809Z,19.20
2022-08-12T19:45:24.698Z,19.10
2022-08-12T19:48:17.073Z,19.00
2022-08-12T19:50:50.130Z,18.90
2022-08-12T19:53:19.983Z,18.80
2022-08-12T19:55:54.146Z,18.80
2022-08-12T19:58:22.360Z,18.80
2022-08-12T20:00:53.279Z,18.70
2022-08-12T20:03:37.985Z,18.60
2022-08-12T20:06:16.089Z,18.50
2022-08-12T20:08:56.503Z,18.40
2022-08-12T20:12:11.335Z,18.30
2022-08-12T20:14:18.467Z,18.20
2022-08-12T20:17:01.530Z,18.20
2022-08-12T20:20:16.571Z,18.10
2022-08-12T20:22:31.364Z,18.00
2022-08-12T20:25:02.806Z,17.90
2022-08-12T20:28:04.885Z,17.80
2022-08-12T20:30:20.650Z,17.70
2022-08-12T20:33:05.165Z,17.60
2022-08-12T20:36:05.910Z,17.50
2022-08-12T20:38:26.458Z,17.40
2022-08-12T20:40:54.040Z,17.30
2022-08-12T20:43:24.236Z,17.20
2022-08-12T20:45:57.154Z,17.10
2022-08-12T20:48:26.210Z,17.10
2022-08-12T20:50:57.529Z,17.00
2022-08-12T20:53:26.546Z,17.00
2022-08-12T20:56:00.381Z,16.90
2022-08-12T20:58:28.391Z,16.90
2022-08-12T21:00:59.963Z,16.80
2022-08-12T21:03:52.371Z,16.70
2022-08-12T21:06:43.307Z,16.70
2022-08-12T21:09:10.343Z,16.60
2022-08-12T21:11:37.750Z,16.60
2022-08-12T21:14:06.021Z,16.60
2022-08-12T21:16:39.072Z,16.60
2022-08-12T21:19:08.213Z,16.60
2022-08-12T21:21:47.101Z,16.50
2022-08-12T21:24:17.701Z,16.50
2022-08-12T21:26:53.701Z,16.40
2022-08-12T21:29:21.824Z,16.30
2022-08-12T21:32:37.361Z,16.30
2022-08-12T21:34:36.188Z,16.20
2022-08-12T21:37:13.107Z,16.20
2022-08-12T21:39:56.322Z,16.10
2022-08-12T21:42:27.984Z,16.10
2022-08-12T21:45:45.685Z,16.00
2022-08-12T21:47:46.433Z,15.90
2022-08-12T21:50:13.525Z,15.80
2022-08-12T21:52:42.056Z,15.70
2022-08-12T21:55:18.019Z,15.70
2022-08-12T21:57:53.462Z,15.60
2022-08-12T22:00:33.217Z,15.60
2022-08-12T22:04:01.832Z,15.50
2022-08-12T22:06:19.879Z,15.50
2022-08-12T22:08:55.850Z,15.40
2022-08-12T22:11:42.246Z,15.30
2022-08-12T22:14:21.384Z,15.30
2022-08-12T22:16:51.051Z,15.20
2022-08-12T22:19:19.671Z,15.10
2022-08-12T22:21:53.362Z,15.00
2022-08-12T22:24:26.231Z,14.90
2022-08-12T22:26:58.532Z,14.90
2022-08-12T22:29:43.649Z,14.90
2022-08-12T22:32:12.053Z,14.80
2022-08-12T22:34:39.404Z,14.70
2022-08-12T22:37:11.392Z,14.70
2022-08-12T22:39:46.487Z,14.70
2022-08-12T22:42:34.578Z,14.60
2022-08-12T22:45:48.818Z,14.60
2022-08-12T22:48:26.482Z,14.60
2022-08-12T22:50:59.111Z,14.50
2022-08-12T22:53:35.789Z,14.50
2022-08-12T22:56:08.133Z,14.50
2022-08-12T22:58:40.383Z,14.40
2022-08-12T23:01:10.576Z,14.40
2022-08-12T23:03:48.032Z,14.40
2022-08-12T23:06:19.720Z,14.30
2022-08-12T23:08:48.043Z,14.30
2022-08-12T23:11:16.256Z,14.30
2022-08-12T23:13:55.445Z,14.30
2022-08-12T23:16:33.167Z,14.30
2022-08-12T23:19:17.827Z,14.20
2022-08-12T23:22:06.629Z,14.10
2022-08-12T23:24:56.656Z,14.10
2022-08-12T23:27:51.885Z,14.00
2022-08-12T23:30:31.924Z,14.00
2022-08-12T23:33:19.737Z,13.90
2022-08-12T23:35:59.270Z,13.90
2022-08-12T23:38:32.302Z,13.80
2022-08-12T23:41:01.677Z,13.80
2022-08-12T23:43:39.416Z,13.80
2022-08-12T23:46:09.141Z,13.70
2022-08-12T23:48:37.559Z,13.60
2022-08-12T23:51:22.215Z,13.60
2022-08-12T23:53:54.974Z,13.60
2022-08-12T23:56:23.668Z,13.50
2022-08-12T23:58:52.518Z,13.50
